createdAt,value
2023-02-24T00:01:24.104Z,37.7
2023-02-24T00:07:29.899Z,37.7
2023-02-24T00:13:35.454Z,37.7
2023-02-24T00:19:40.812Z,37.7
2023-02-24T00:25:46.400Z,37.7
2023-02-24T00:31:52.996Z,37.7
2023-02-24T00:37:58.984Z,37.7
2023-02-24T00:44:04.353Z,37.6
2023-02-24T00:50:09.936Z,37.6
2023-02-24T00:56:15.507Z,37.6
2023-02-24T01:02:21.898Z,37.5
2023-02-24T01:08:27.656Z,37.6
2023-02-24T01:14:33.452Z,37.5
2023-02-24T01:20:39.824Z,37.5
2023-02-24T01:26:45.603Z,37.5
2023-02-24T01:32:52.284Z,37.4
2023-02-24T01:38:57.968Z,37.4
2023-02-24T01:45:03.558Z,37.4
2023-02-24T01:51:09.112Z,37.4
2023-02-24T01:57:15.116Z,37.3
2023-02-24T02:03:20.921Z,37.3
2023-02-24T02:09:26.665Z,37.2
2023-02-24T02:15:32.632Z,37.2
2023-02-24T02:21:38.410Z,37.1
2023-02-24T02:27:43.996Z,37.1
2023-02-24T02:33:49.762Z,37
2023-02-24T02:39:55.547Z,37
2023-02-24T02:46:01.577Z,36.9
2023-02-24T02:52:07.290Z,36.9
2023-02-24T02:58:12.870Z,36.8
2023-02-24T03:04:18.478Z,36.8
2023-02-24T03:10:24.012Z,36.7
2023-02-24T03:16:29.440Z,36.7
2023-02-24T03:22:34.961Z,36.7
2023-02-24T03:28:41.155Z,36.6
2023-02-24T03:34:46.908Z,36.6
2023-02-24T03:40:52.690Z,36.6
2023-02-24T03:46:58.245Z,36.5
2023-02-24T03:53:03.823Z,36.5
2023-02-24T03:59:09.628Z,36.5
2023-02-24T04:05:15.165Z,36.5
2023-02-24T04:11:21.681Z,36.5
2023-02-24T04:17:27.618Z,36.5
2023-02-24T04:23:32.980Z,36.5
2023-02-24T04:29:38.471Z,36.5
2023-02-24T04:35:43.857Z,36.5
2023-02-24T04:41:49.227Z,36.4
2023-02-24T04:47:54.462Z,36.4
2023-02-24T04:53:59.632Z,36.4
2023-02-24T05:00:05.333Z,36.3
2023-02-24T05:06:10.883Z,36.4
2023-02-24T05:12:16.543Z,36.3
2023-02-24T05:18:22.345Z,36.3
2023-02-24T05:24:27.703Z,36.2
2023-02-24T05:30:33.284Z,36.2
2023-02-24T05:36:39.161Z,36.1
2023-02-24T05:42:44.739Z,36.2
2023-02-24T05:48:50.327Z,36.1
2023-02-24T05:54:55.677Z,36
2023-02-24T06:01:01.450Z,36.1
2023-02-24T06:07:07.029Z,36.1
2023-02-24T06:13:12.812Z,36.1
2023-02-24T06:19:21.102Z,36.1
2023-02-24T06:25:26.860Z,36.1
2023-02-24T06:31:32.164Z,36.1
2023-02-24T06:37:38.229Z,36.1
2023-02-24T06:43:44.128Z,36.1
2023-02-24T06:49:49.908Z,36.1
2023-02-24T06:55:55.488Z,36.1
2023-02-24T07:02:01.057Z,36.1
2023-02-24T07:08:07.044Z,36.1
2023-02-24T07:14:13.022Z,36.1
2023-02-24T07:20:18.398Z,36.2
2023-02-24T07:26:24.380Z,36.1
2023-02-24T07:32:30.399Z,36.2
2023-02-24T07:38:35.156Z,36.1
2023-02-24T07:44:41.293Z,36.2
2023-02-24T07:50:46.715Z,36.2
2023-02-24T07:56:52.131Z,36.2
2023-02-24T08:02:58.126Z,36.2
2023-02-24T08:09:03.868Z,36.2
2023-02-24T08:15:09.431Z,36.2
2023-02-24T08:21:14.411Z,36.2
2023-02-24T08:27:20.179Z,36.3
2023-02-24T08:33:25.868Z,36.3
2023-02-24T08:39:32.053Z,36.3
2023-02-24T08:45:37.831Z,36.3
2023-02-24T08:51:43.401Z,36.3
2023-02-24T08:57:48.839Z,36.3
2023-02-24T09:03:54.353Z,36.4
2023-02-24T09:09:59.979Z,36.3
2023-02-24T09:16:05.506Z,36.3
2023-02-24T09:22:23.560Z,36.5
2023-02-24T09:28:29.362Z,36.5
2023-02-24T09:34:35.112Z,36.5
2023-02-24T09:40:41.089Z,36.6
2023-02-24T09:46:46.587Z,36.5
2023-02-24T09:52:57.702Z,36.6
2023-02-24T09:59:05.388Z,36.6
2023-02-24T10:05:11.366Z,36.5
2023-02-24T10:11:17.143Z,36.7
2023-02-24T10:17:25.186Z,36.8
2023-02-24T10:23:30.614Z,36.7
2023-02-24T10:29:35.905Z,36.6
2023-02-24T10:35:41.279Z,36.5
2023-02-24T10:41:46.919Z,36.6
2023-02-24T10:47:52.438Z,37
2023-02-24T10:53:58.610Z,36.9
2023-02-24T11:00:04.179Z,36.8
2023-02-24T11:06:09.739Z,36.9
2023-02-24T11:12:15.119Z,36.9
2023-02-24T11:18:20.678Z,36.8
2023-02-24T11:24:26.261Z,36.8
2023-02-24T11:30:32.456Z,36.8
2023-02-24T11:36:38.013Z,36.8
2023-02-24T11:42:43.584Z,36.9
2023-02-24T11:48:49.180Z,37.2
2023-02-24T11:54:54.192Z,37
2023-02-24T12:00:59.542Z,37.1
2023-02-24T12:07:07.115Z,37.1
2023-02-24T12:13:13.089Z,37.2
2023-02-24T12:19:18.441Z,37.4
2023-02-24T12:25:24.218Z,37.3
2023-02-24T12:31:31.114Z,37.4
2023-02-24T12:37:37.010Z,37.3
2023-02-24T12:43:42.025Z,37.4
2023-02-24T12:49:47.793Z,37.4
2023-02-24T12:55:53.571Z,37.3
2023-02-24T13:01:59.375Z,37.4
2023-02-24T13:08:04.515Z,37.2
2023-02-24T13:14:10.292Z,37.2
2023-02-24T13:20:15.598Z,37.3
2023-02-24T13:26:20.757Z,37.5
2023-02-24T13:32:26.816Z,37.4
2023-02-24T13:38:32.375Z,37.5
2023-02-24T13:44:37.698Z,37.5
2023-02-24T13:50:43.262Z,37.5
2023-02-24T13:56:49.242Z,37.5
2023-02-24T14:02:54.882Z,37.4
2023-02-24T14:09:00.594Z,37.4
2023-02-24T14:15:06.188Z,37.1
2023-02-24T14:21:11.949Z,37.1
2023-02-24T14:27:20.597Z,37.3
2023-02-24T14:33:26.558Z,37.1
2023-02-24T14:39:32.142Z,37.1
2023-02-24T14:45:37.308Z,37.2
2023-02-24T14:51:43.074Z,37.3
2023-02-24T14:57:47.884Z,37.3
2023-02-24T15:03:53.603Z,37.3
2023-02-24T15:09:59.485Z,37.4
2023-02-24T15:16:04.946Z,37.6
2023-02-24T15:22:10.730Z,37.9
2023-02-24T15:28:16.354Z,37.8
2023-02-24T15:34:21.762Z,37.5
2023-02-24T15:40:26.280Z,38
2023-02-24T15:46:31.745Z,38.5
2023-02-24T15:52:37.557Z,38
2023-02-24T15:58:43.126Z,38.1
2023-02-24T16:04:48.911Z,38
2023-02-24T16:10:54.678Z,38
2023-02-24T16:17:00.260Z,38
2023-02-24T16:23:05.421Z,37.8
2023-02-24T16:29:10.579Z,37.9
2023-02-24T16:35:15.750Z,38
2023-02-24T16:41:21.184Z,37.9
2023-02-24T16:47:26.339Z,38
2023-02-24T16:53:32.116Z,37.9
2023-02-24T16:59:37.932Z,37.8
2023-02-24T17:05:44.311Z,37.9
2023-02-24T17:11:50.093Z,38.1
2023-02-24T17:17:56.417Z,38.1
2023-02-24T17:24:02.374Z,38
2023-02-24T17:30:08.042Z,38
2023-02-24T17:36:14.327Z,38.2
2023-02-24T17:42:20.395Z,38.4
2023-02-24T17:48:26.570Z,38.3
2023-02-24T17:54:32.570Z,38.1
2023-02-24T18:00:38.262Z,38.2
2023-02-24T18:06:44.450Z,38.4
2023-02-24T18:12:50.843Z,38.6
2023-02-24T18:18:56.606Z,38.1
2023-02-24T18:25:03.010Z,38.1
2023-02-24T18:31:09.614Z,38.3
2023-02-24T18:37:15.247Z,38.3
2023-02-24T18:43:21.052Z,38.3
2023-02-24T18:49:27.135Z,38.2
2023-02-24T18:55:33.537Z,38.7
2023-02-24T19:01:39.530Z,38.4
2023-02-24T19:07:45.901Z,38.3
2023-02-24T19:13:51.695Z,38.6
2023-02-24T19:19:57.658Z,38.5
2023-02-24T19:26:04.053Z,38.7
2023-02-24T19:32:10.402Z,38.5
2023-02-24T19:38:16.441Z,38.3
2023-02-24T19:44:22.264Z,38.6
2023-02-24T19:50:28.270Z,38.4
2023-02-24T19:56:34.194Z,38.6
2023-02-24T20:02:39.953Z,38.6
2023-02-24T20:08:46.130Z,38.9
2023-02-24T20:14:52.132Z,38.7
2023-02-24T20:20:58.509Z,39
2023-02-24T20:27:04.755Z,38.6
2023-02-24T20:33:11.083Z,38.9
2023-02-24T20:39:17.477Z,39.2
2023-02-24T20:45:23.330Z,39
2023-02-24T20:51:29.643Z,39
2023-02-24T20:57:35.624Z,39
2023-02-24T21:03:41.393Z,39.1
2023-02-24T21:09:47.217Z,39
2023-02-24T21:15:53.807Z,39.4
2023-02-24T21:21:59.547Z,39.3
2023-02-24T21:28:05.770Z,39.2
2023-02-24T21:34:12.120Z,39.5
2023-02-24T21:40:17.828Z,39.5
2023-02-24T21:46:25.617Z,39.2
2023-02-24T21:52:31.301Z,39.4
2023-02-24T21:58:37.274Z,39.4
2023-02-24T22:04:43.065Z,39.1
2023-02-24T22:10:49.440Z,39.3
2023-02-24T22:16:55.622Z,39.3
2023-02-24T22:23:01.188Z,39.2
2023-02-24T22:29:06.836Z,39
2023-02-24T22:35:12.747Z,38.9
2023-02-24T22:41:18.752Z,38.8
2023-02-24T22:47:25.160Z,38.7
2023-02-24T22:53:31.310Z,38.5
2023-02-24T22:59:37.317Z,38.4
2023-02-24T23:05:43.466Z,38.4
2023-02-24T23:11:49.553Z,38.3
2023-02-24T23:17:55.627Z,38.3
2023-02-24T23:24:02.237Z,38.2
2023-02-24T23:30:08.240Z,38.1
2023-02-24T23:36:14.016Z,38.1
2023-02-24T23:42:20.204Z,38
2023-02-24T23:48:26.364Z,37.9
2023-02-24T23:54:32.354Z,37.8
